Time;durP1;ratioP1;P1;durP2;ratioP2;P2;SDS_P1;SDS_P2;PMS_P1;PMS_P2;Temp;Humidity;BMP_temperature;BMP_pressure;BME280_temperature;BME280_humidity;BME280_pressure;Samples;Min_cycle;Max_cycle;Signal;HPM_P1;HPM_P2
2023/01/28 00:01:22;;;;;;;4.80;2.58;;;;;;;0.40;92.48;102112.91;7402130;19;20085;-69
2023/01/28 00:03:52;;;;;;;6.40;2.88;;;;;;;0.39;92.25;102113.72;7400610;19;20023;-69
2023/01/28 00:06:21;;;;;;;5.38;2.72;;;;;;;0.38;92.21;102120.59;7401828;19;20488;-70
2023/01/28 00:08:56;;;;;;;7.38;2.63;;;;;;;0.37;92.69;102117.91;7401883;19;20036;-69
2023/01/28 00:11:25;;;;;;;4.28;2.45;;;;;;;0.36;92.32;102119.63;7401167;19;20022;-69
2023/01/28 00:13:56;;;;;;;7.43;3.65;;;;;;;0.32;91.07;102121.19;7400033;19;20015;-70
2023/01/28 00:16:25;;;;;;;6.53;2.40;;;;;;;0.27;90.82;102114.94;7402278;19;20027;-69
2023/01/28 00:18:54;;;;;;;4.85;3.00;;;;;;;0.26;91.28;102112.31;7401346;19;20392;-69
2023/01/28 00:21:23;;;;;;;7.60;3.95;;;;;;;0.21;90.53;102111.25;7401729;19;20035;-69
2023/01/28 00:23:54;;;;;;;4.60;3.00;;;;;;;0.19;91.48;102112.84;7400126;19;20470;-69
2023/01/28 00:26:31;;;;;;;7.80;3.22;;;;;;;0.14;90.47;102116.13;7401995;19;20010;-69
2023/01/28 00:29:02;;;;;;;3.90;2.50;;;;;;;0.13;91.36;102119.53;7401866;19;20015;-69
2023/01/28 00:31:31;;;;;;;5.88;2.50;;;;;;;0.10;91.15;102119.41;7399176;19;20035;-69
2023/01/28 00:33:59;;;;;;;6.60;2.60;;;;;;;0.08;91.18;102133.94;7399471;19;20032;-69
2023/01/28 00:36:29;;;;;;;5.00;2.58;;;;;;;0.04;90.21;102124.31;7401055;19;20022;-69
2023/01/28 00:39:00;;;;;;;7.07;2.80;;;;;;;0.02;90.68;102123.34;7401075;19;20014;-69
2023/01/28 00:41:30;;;;;;;5.28;2.92;;;;;;;-0.01;91.23;102126.66;7401246;19;20031;-69
2023/01/28 00:43:58;;;;;;;6.20;2.60;;;;;;;-0.02;90.21;102127.47;7399323;19;20031;-69
2023/01/28 00:46:29;;;;;;;5.30;2.33;;;;;;;-0.05;90.62;102131.63;7400958;19;20026;-69
2023/01/28 00:48:58;;;;;;;3.92;2.60;;;;;;;-0.05;90.63;102134.19;7401179;19;20019;-69
2023/01/28 00:51:27;;;;;;;5.38;2.83;;;;;;;-0.07;90.25;102131.56;7400096;19;20006;-69
2023/01/28 00:53:56;;;;;;;7.28;3.08;;;;;;;-0.08;90.75;102140.09;7398771;19;20022;-68
2023/01/28 00:56:24;;;;;;;6.03;3.20;;;;;;;-0.10;90.90;102141.75;7400231;19;20481;-68
2023/01/28 00:58:53;;;;;;;9.43;3.33;;;;;;;-0.12;89.84;102134.75;7399901;19;20018;-68
2023/01/28 01:01:24;;;;;;;6.05;3.55;;;;;;;-0.12;90.07;102139.91;7400324;19;20373;-68
2023/01/28 01:04:01;;;;;;;8.82;3.20;;;;;;;-0.16;89.81;102146.63;7399131;19;20077;-68
2023/01/28 01:06:31;;;;;;;8.35;3.03;;;;;;;-0.16;90.16;102151.78;7399968;19;20453;-68
2023/01/28 01:08:59;;;;;;;5.32;2.42;;;;;;;-0.19;88.88;102152.53;7399992;19;20028;-70
2023/01/28 01:11:28;;;;;;;9.38;3.47;;;;;;;-0.20;88.21;102147.31;7399570;19;20018;-68
2023/01/28 01:13:58;;;;;;;7.63;3.67;;;;;;;-0.23;88.94;102148.06;7398498;19;20023;-69
2023/01/28 01:16:31;;;;;;;6.43;3.08;;;;;;;-0.29;89.30;102145.22;7399903;19;20018;-68
2023/01/28 01:19:02;;;;;;;3.60;2.88;;;;;;;-0.26;89.07;102152.19;7399479;19;20019;-69
2023/01/28 01:21:32;;;;;;;4.72;2.40;;;;;;;-0.28;89.25;102152.09;7400107;19;20011;-68
2023/01/28 01:24:01;;;;;;;9.55;3.22;;;;;;;-0.28;88.90;102153.81;7398092;19;20010;-68
2023/01/28 01:26:29;;;;;;;5.43;3.03;;;;;;;-0.30;87.96;102153.75;7399530;19;20015;-68
2023/01/28 01:28:57;;;;;;;5.53;2.88;;;;;;;-0.31;88.76;102148.53;7399462;19;20019;-68
2023/01/28 01:31:26;;;;;;;8.27;3.50;;;;;;;-0.35;88.01;102152.66;7397077;19;20486;-69
2023/01/28 01:33:54;;;;;;;5.68;2.88;;;;;;;-0.35;88.29;102152.66;7397576;19;20423;-69
2023/01/28 01:36:26;;;;;;;5.00;3.10;;;;;;;-0.37;89.77;102151.69;7399228;19;20011;-68
2023/01/28 01:38:56;;;;;;;8.25;3.95;;;;;;;-0.37;88.90;102164.59;7399474;19;20027;-68
2023/01/28 01:41:28;;;;;;;5.47;3.13;;;;;;;-0.42;87.96;102159.22;7399096;19;20031;-68
2023/01/28 01:43:59;;;;;;;7.15;2.88;;;;;;;-0.39;89.35;102159.38;7397308;19;20031;-68
2023/01/28 01:46:38;;;;;;;4.55;2.67;;;;;;;-0.39;89.90;102153.31;7399378;19;20011;-68
2023/01/28 01:49:16;;;;;;;6.03;3.08;;;;;;;-0.40;89.38;102162.75;7398481;19;20032;-69
2023/01/28 01:51:51;;;;;;;6.85;3.20;;;;;;;-0.40;89.84;102162.75;7397856;19;20502;-69
2023/01/28 01:54:20;;;;;;;4.57;2.65;;;;;;;-0.41;89.71;102165.28;7396761;19;20498;-69
2023/01/28 01:56:51;;;;;;;6.10;3.35;;;;;;;-0.42;88.89;102166.06;7398510;19;20018;-69
2023/01/28 01:59:26;;;;;;;6.50;3.20;;;;;;;-0.45;89.55;102174.56;7398828;19;20019;-69
2023/01/28 02:01:55;;;;;;;;;;;;;;;-0.46;87.05;102177.94;7399319;19;20022;-69
2023/01/28 02:04:27;;;;;;;4.75;3.13;;;;;;;-0.47;89.16;102186.47;7396336;19;19986;-68
2023/01/28 02:07:00;;;;;;;5.43;3.17;;;;;;;-0.48;89.16;102178.69;7398698;19;20032;-69
2023/01/28 02:09:31;;;;;;;5.88;3.17;;;;;;;-0.50;89.20;102191.50;7398342;19;20015;-69
2023/01/28 02:12:02;;;;;;;7.90;3.70;;;;;;;-0.51;89.10;102188.03;7397867;19;20367;-71
2023/01/28 02:14:36;;;;;;;8.02;3.15;;;;;;;-0.52;89.78;102186.28;7395977;19;20094;-70
2023/01/28 02:17:05;;;;;;;6.88;3.42;;;;;;;-0.53;89.94;102181.94;7396965;19;20027;-69
2023/01/28 02:19:39;;;;;;;6.32;3.13;;;;;;;-0.54;88.73;102182.75;7397717;19;20014;-69
2023/01/28 02:22:21;;;;;;;8.10;3.55;;;;;;;-0.56;89.14;102183.47;7398243;19;20024;-69
2023/01/28 02:25:12;;;;;;;8.40;3.17;;;;;;;-0.57;88.98;102185.19;7395858;19;20018;-69
2023/01/28 02:28:03;;;;;;;6.78;3.40;;;;;;;-0.58;89.47;102188.56;7397634;19;20461;-69
2023/01/28 02:30:36;;;;;;;6.28;3.35;;;;;;;-0.59;89.32;102188.50;7396640;19;20015;-70
2023/01/28 02:33:09;;;;;;;10.80;3.38;;;;;;;-0.64;88.91;102183.13;7395742;19;20494;-70
2023/01/28 02:35:48;;;;;;;6.30;3.30;;;;;;;-0.61;89.92;102191.00;7397686;19;20035;-70
2023/01/28 02:38:22;;;;;;;7.88;3.63;;;;;;;-0.60;90.43;102197.91;7397648;19;20015;-69
2023/01/28 02:41:05;;;;;;;6.55;3.22;;;;;;;-0.60;89.50;102186.72;7397301;19;20031;-69
2023/01/28 02:43:41;;;;;;;7.70;3.30;;;;;;;-0.59;90.56;102193.66;7396587;19;20014;-70
2023/01/28 02:49:00;;;;;;;6.28;3.42;;;;;;;-0.58;90.52;102191.16;7397089;19;20010;-69
2023/01/28 02:51:41;;;;;;;5.70;2.92;;;;;;;-0.57;90.20;102181.72;7396369;19;20481;-68
2023/01/28 02:54:14;;;;;;;4.63;3.13;;;;;;;-0.57;90.37;102189.44;7395141;19;20031;-68
2023/01/28 02:56:50;;;;;;;7.28;3.58;;;;;;;-0.58;90.69;102186.00;7396208;19;20031;-68
2023/01/28 02:59:34;;;;;;;6.05;3.78;;;;;;;-0.57;90.48;102187.78;7396483;19;20031;-71
2023/01/28 03:02:10;;;;;;;9.10;3.80;;;;;;;-0.58;90.03;102187.66;7396913;19;20093;-73
2023/01/28 03:04:45;;;;;;;10.57;3.85;;;;;;;-0.64;89.08;102177.97;7394979;19;20085;-72
2023/01/28 03:07:16;;;;;;;6.00;4.13;;;;;;;-0.62;89.50;102194.41;7396674;19;20007;-71
2023/01/28 03:09:45;;;;;;;7.78;3.55;;;;;;;-0.64;89.91;102195.09;7396639;19;20014;-71
2023/01/28 03:37:00;;;;;;;8.02;3.60;;;;;;;-0.64;90.18;102185.69;7395404;19;20459;-70
2023/01/28 03:39:31;;;;;;;10.13;4.15;;;;;;;-0.69;90.18;102176.88;7395127;19;20022;-70
2023/01/28 03:42:05;;;;;;;7.50;4.10;;;;;;;-0.65;89.94;102186.50;7395658;19;20014;-71
2023/01/28 03:47:19;;;;;;;7.72;3.33;;;;;;;-0.66;89.53;102180.47;7395265;19;20010;-70
2023/01/28 03:49:50;;;;;;;6.43;3.78;;;;;;;-0.66;90.07;102177.00;7395507;19;20027;-70
2023/01/28 03:52:21;;;;;;;6.43;3.65;;;;;;;-0.66;90.30;102179.56;7394234;19;20025;-71
2023/01/28 03:54:51;;;;;;;10.70;3.38;;;;;;;-0.73;89.99;102172.38;7392786;19;20388;-70
2023/01/28 03:57:22;;;;;;;10.30;4.50;;;;;;;-0.66;90.29;102171.84;7392734;19;20466;-71
2023/01/28 03:59:51;;;;;;;8.35;3.70;;;;;;;-0.69;90.01;102167.44;7394496;19;20078;-70
2023/01/28 04:02:25;;;;;;;7.65;3.50;;;;;;;-0.71;89.19;102175.91;7392984;19;20007;-71
2023/01/28 04:04:54;;;;;;;8.18;4.43;;;;;;;-0.66;89.58;102184.72;7392424;19;20023;-71
2023/01/28 04:07:23;;;;;;;7.93;3.40;;;;;;;-0.68;89.71;102187.25;7394653;19;20018;-70
2023/01/28 04:09:51;;;;;;;7.68;3.53;;;;;;;-0.71;89.79;102181.97;7394443;19;20044;-70
2023/01/28 04:12:22;;;;;;;7.50;3.85;;;;;;;-0.70;89.84;102183.69;7393953;19;20039;-71
2023/01/28 04:14:50;;;;;;;5.97;3.67;;;;;;;-0.70;89.73;102183.69;7392595;19;20019;-70
2023/01/28 04:17:22;;;;;;;8.60;4.00;;;;;;;-0.71;89.64;102189.69;7393918;19;20483;-71
2023/01/28 04:19:50;;;;;;;8.57;3.60;;;;;;;-0.72;89.86;102190.50;7393982;19;20024;-70
2023/01/28 04:22:19;;;;;;;9.95;3.75;;;;;;;-0.70;90.07;102195.72;7393783;19;20380;-71
2023/01/28 04:24:47;;;;;;;9.27;4.15;;;;;;;-0.70;90.50;102194.00;7391858;19;20018;-71
2023/01/28 04:27:16;;;;;;;6.05;3.80;;;;;;;-0.68;90.50;102188.94;7393758;19;20351;-71
2023/01/28 04:29:44;;;;;;;7.80;3.65;;;;;;;-0.68;90.21;102196.69;7393817;19;20023;-70
2023/01/28 04:32:13;;;;;;;9.75;4.18;;;;;;;-0.68;90.10;102186.38;7391754;19;20010;-69
2023/01/28 04:34:44;;;;;;;6.40;3.50;;;;;;;-0.67;90.23;102198.44;7391953;19;20019;-68
2023/01/28 04:37:12;;;;;;;10.93;4.07;;;;;;;-0.68;89.63;102194.97;7393496;19;20074;-71
2023/01/28 04:39:41;;;;;;;8.13;3.60;;;;;;;-0.69;89.78;102187.19;7395404;19;20015;-68
2023/01/28 04:42:12;;;;;;;5.40;3.60;;;;;;;-0.69;89.41;102195.78;7400936;19;20022;-69
2023/01/28 04:44:41;;;;;;;6.85;4.03;;;;;;;-0.69;90.18;102194.91;7398450;19;20022;-69
2023/01/28 04:47:09;;;;;;;8.13;3.80;;;;;;;-0.68;90.32;102207.00;7400460;19;20015;-70
2023/01/28 04:49:38;;;;;;;8.18;3.85;;;;;;;-0.68;90.52;102200.13;7399912;19;20544;-69
2023/01/28 04:52:09;;;;;;;9.57;4.65;;;;;;;-0.65;90.43;102199.41;7400616;19;20098;-71
2023/01/28 04:54:37;;;;;;;9.88;4.82;;;;;;;-0.64;90.56;102202.84;7399118;19;20014;-71
2023/01/28 04:57:06;;;;;;;6.85;3.72;;;;;;;-0.62;90.25;102203.81;7400174;19;20032;-71
2023/01/28 04:59:34;;;;;;;8.85;4.40;;;;;;;-0.61;90.28;102205.59;7400472;19;20015;-70
2023/01/28 05:02:03;;;;;;;10.25;5.55;;;;;;;-0.60;90.10;102210.81;7397807;19;20031;-70
2023/01/28 05:04:31;;;;;;;10.05;4.82;;;;;;;-0.61;90.22;102211.63;7398166;19;20031;-71
2023/01/28 05:07:00;;;;;;;10.93;4.63;;;;;;;-0.60;90.25;102205.66;7399865;19;20436;-70
2023/01/28 05:09:31;;;;;;;10.60;5.07;;;;;;;-0.60;90.04;102210.81;7400102;19;20085;-69
2023/01/28 05:12:00;;;;;;;8.90;4.90;;;;;;;-0.59;90.01;102212.59;7400388;19;20027;-69
2023/01/28 05:14:28;;;;;;;9.00;4.22;;;;;;;-0.66;90.09;102206.25;7397619;19;20022;-70
2023/01/28 05:16:57;;;;;;;11.73;4.68;;;;;;;-0.61;90.12;102203.88;7399543;19;20019;-70
2023/01/28 05:19:25;;;;;;;11.07;4.72;;;;;;;-0.60;89.46;102213.38;7399888;19;20014;-70
2023/01/28 05:21:54;;;;;;;8.23;5.35;;;;;;;-0.61;89.84;102213.31;7399768;19;20025;-70
2023/01/28 05:24:23;;;;;;;10.68;4.68;;;;;;;-0.62;89.70;102212.44;7397433;19;20420;-70
2023/01/28 05:26:54;;;;;;;9.20;5.60;;;;;;;-0.62;89.49;102222.75;7399471;19;20019;-71
2023/01/28 05:29:22;;;;;;;8.73;4.68;;;;;;;-0.63;89.48;102228.72;7399011;19;20010;-71
2023/01/28 05:31:51;;;;;;;10.63;5.18;;;;;;;-0.67;89.75;102221.63;7397464;19;20011;-72
2023/01/28 05:34:19;;;;;;;8.18;4.60;;;;;;;-0.64;88.45;102234.69;7396671;19;20036;-70
2023/01/28 05:36:48;;;;;;;14.07;5.45;;;;;;;-0.70;88.38;102224.06;7398774;19;20018;-69
2023/01/28 05:39:16;;;;;;;9.55;4.82;;;;;;;-0.68;87.61;102232.78;7399115;19;20014;-69
2023/01/28 05:41:45;;;;;;;11.63;4.78;;;;;;;-0.71;88.63;102237.75;7398715;19;20045;-71
2023/01/28 05:44:16;;;;;;;9.80;5.43;;;;;;;-0.72;88.43;102243.72;7397153;19;20015;-69
2023/01/28 05:46:45;;;;;;;10.70;5.57;;;;;;;-0.73;88.88;102241.97;7399427;19;20007;-69
2023/01/28 05:49:15;;;;;;;11.32;5.38;;;;;;;-0.73;87.89;102237.69;7399247;19;20014;-70
2023/01/28 05:51:44;;;;;;;9.40;5.13;;;;;;;-0.74;87.71;102238.50;7396388;19;20368;-71
2023/01/28 05:54:12;;;;;;;10.68;5.88;;;;;;;-0.75;86.25;102239.31;7396570;19;20489;-70
2023/01/28 05:56:54;;;;;;;12.57;5.90;;;;;;;-0.78;86.84;102230.53;7396379;19;20032;-69
2023/01/28 05:59:25;;;;;;;10.95;5.45;;;;;;;-0.79;87.29;102244.25;7398827;19;20027;-69
2023/01/28 06:01:54;;;;;;;10.75;5.72;;;;;;;-0.80;87.87;102240.78;7398811;19;20066;-69
2023/01/28 06:04:22;;;;;;;10.02;5.68;;;;;;;-0.80;88.10;102232.16;7396247;19;20018;-69
2023/01/28 06:06:51;;;;;;;14.30;5.53;;;;;;;-0.81;87.09;102246.72;7397728;19;20482;-70
2023/01/28 06:09:19;;;;;;;11.38;5.65;;;;;;;-0.83;87.72;102243.22;7397658;19;20489;-70
2023/01/28 06:11:49;;;;;;;9.70;6.25;;;;;;;-0.84;87.51;102244.03;7397706;19;20007;-70
2023/01/28 06:14:17;;;;;;;12.57;6.32;;;;;;;-0.85;87.81;102248.31;7396326;19;20047;-70
2023/01/28 06:16:49;;;;;;;9.45;4.97;;;;;;;-0.85;87.56;102252.56;7397954;19;20031;-70
2023/01/28 06:19:17;;;;;;;12.13;5.63;;;;;;;-0.86;87.28;102250.78;7397425;19;20018;-70
2023/01/28 06:21:46;;;;;;;8.73;4.72;;;;;;;-0.88;87.09;102255.88;7397915;19;20015;-70
2023/01/28 06:24:14;;;;;;;9.75;5.80;;;;;;;-0.89;87.29;102253.22;7396293;19;20028;-69
2023/01/28 06:26:43;;;;;;;14.90;7.93;;;;;;;-0.90;87.46;102262.63;7397503;19;20035;-70
2023/01/28 06:29:11;;;;;;;11.50;5.40;;;;;;;-0.89;87.60;102260.94;7395021;19;20107;-70
2023/01/28 06:31:40;;;;;;;14.07;6.40;;;;;;;-0.88;88.14;102266.16;7394891;19;20006;-70
2023/01/28 06:34:11;;;;;;;9.70;5.63;;;;;;;-0.87;88.81;102260.22;7396064;19;20433;-70
2023/01/28 06:36:40;;;;;;;9.18;4.40;;;;;;;-0.87;88.32;102257.63;7396899;19;20485;-70
2023/01/28 06:39:09;;;;;;;10.27;5.10;;;;;;;-0.86;87.92;102261.09;7397175;19;20018;-70
2023/01/28 06:41:37;;;;;;;9.65;5.65;;;;;;;-0.85;88.14;102263.75;7397187;19;20018;-70
2023/01/28 06:44:06;;;;;;;13.48;5.28;;;;;;;-0.84;88.22;102262.94;7395782;19;20035;-70
2023/01/28 06:46:35;;;;;;;11.48;7.35;;;;;;;-0.80;88.26;102263.09;7399801;19;20015;-67
2023/01/28 06:49:04;;;;;;;16.63;8.13;;;;;;;-0.78;87.75;102264.03;7396859;19;20111;-68
2023/01/28 06:51:35;;;;;;;15.30;8.48;;;;;;;-0.76;87.94;102254.69;7396645;19;20473;-68
2023/01/28 06:54:03;;;;;;;22.50;10.60;;;;;;;-0.74;87.29;102264.28;7396398;19;20018;-68
2023/01/28 06:56:32;;;;;;;18.92;8.98;;;;;;;-0.73;87.83;102263.47;7396916;19;20015;-67
2023/01/28 06:59:00;;;;;;;16.73;8.18;;;;;;;-0.71;86.59;102268.69;7396737;19;20019;-67
2023/01/28 07:01:29;;;;;;;14.68;8.30;;;;;;;-0.70;87.25;102263.59;7397135;19;20028;-67
2023/01/28 07:03:57;;;;;;;9.93;5.47;;;;;;;-0.69;87.25;102256.78;7396415;19;20019;-68
2023/01/28 07:06:26;;;;;;;9.93;6.40;;;;;;;-0.67;86.88;102260.28;7396672;19;20139;-67
2023/01/28 07:08:57;;;;;;;17.27;8.25;;;;;;;-0.64;87.10;102264.72;7396701;19;20014;-67
2023/01/28 07:11:26;;;;;;;11.90;6.00;;;;;;;-0.65;86.29;102269.00;7397774;19;20014;-67
2023/01/28 07:13:54;;;;;;;15.93;8.93;;;;;;;-0.63;86.31;102269.06;7395828;19;20015;-66
2023/01/28 07:16:23;;;;;;;11.82;5.43;;;;;;;-0.63;86.59;102264.81;7396820;19;20014;-66
2023/01/28 07:18:51;;;;;;;14.48;6.80;;;;;;;-0.65;86.54;102258.69;7395995;19;20014;-67
2023/01/28 07:21:20;;;;;;;10.38;6.57;;;;;;;-0.60;86.06;102267.53;7395866;19;20031;-67
2023/01/28 07:23:48;;;;;;;9.68;3.47;;;;;;;-0.59;85.64;102266.72;7394622;19;20493;-66
2023/01/28 07:26:19;;;;;;;7.78;3.92;;;;;;;-0.59;86.20;102271.88;7395978;19;20028;-65
2023/01/28 07:28:48;;;;;;;7.35;4.40;;;;;;;-0.57;86.16;102275.44;7396449;19;20025;-67
2023/01/28 07:31:16;;;;;;;5.47;3.55;;;;;;;-0.54;85.88;102282.41;7395310;19;20028;-66
2023/01/28 07:33:45;;;;;;;10.07;3.50;;;;;;;-0.54;85.75;102275.56;7394866;19;20074;-66
2023/01/28 07:36:13;;;;;;;5.82;3.88;;;;;;;-0.53;85.34;102279.00;7396269;19;20023;-66
2023/01/28 07:38:42;;;;;;;8.30;4.30;;;;;;;-0.50;85.48;102279.19;7396034;19;20032;-67
2023/01/28 07:41:10;;;;;;;6.45;4.82;;;;;;;-0.50;85.31;102279.19;7395937;19;20014;-68
2023/01/28 07:43:41;;;;;;;8.38;4.95;;;;;;;-0.48;85.06;102281.81;7394357;19;20019;-68
2023/01/28 07:46:10;;;;;;;9.75;4.38;;;;;;;-0.47;85.34;102270.69;7395899;19;20051;-68
2023/01/28 07:48:39;;;;;;;7.70;5.07;;;;;;;-0.47;85.21;102274.16;7395419;19;20015;-67
2023/01/28 07:51:07;;;;;;;6.38;4.38;;;;;;;-0.43;85.18;102270.03;7395358;19;20034;-67
2023/01/28 07:53:36;;;;;;;7.35;4.80;;;;;;;-0.41;85.05;102265.84;7394318;19;20019;-67
2023/01/28 07:56:05;;;;;;;5.93;4.82;;;;;;;-0.38;84.99;102273.72;7394947;19;20019;-67
2023/01/28 07:58:34;;;;;;;7.85;4.97;;;;;;;-0.36;84.70;102275.56;7394964;19;20027;-67
2023/01/28 08:01:05;;;;;;;12.15;5.65;;;;;;;-0.25;85.83;102276.06;7395480;19;20032;-67
2023/01/28 08:03:34;;;;;;;6.45;4.35;;;;;;;-0.17;85.11;102269.56;7394548;19;20019;-67
2023/01/28 08:06:03;;;;;;;7.05;4.50;;;;;;;-0.08;85.35;102268.25;7394230;19;20019;-67
2023/01/28 08:08:32;;;;;;;7.47;4.68;;;;;;;-0.03;85.25;102274.50;7392727;19;20018;-67
2023/01/28 08:11:00;;;;;;;6.75;4.82;;;;;;;-0.01;85.16;102270.31;7394863;19;20015;-68
2023/01/28 08:13:29;;;;;;;6.88;5.22;;;;;;;0.01;84.95;102276.41;7394773;19;20018;-67
2023/01/28 08:15:58;;;;;;;8.35;4.72;;;;;;;0.02;84.50;102267.84;7402377;19;20022;-67
2023/01/28 08:18:29;;;;;;;7.20;4.85;;;;;;;0.03;84.47;102273.91;7402818;19;20035;-68
2023/01/28 08:20:58;;;;;;;9.70;5.20;;;;;;;0.03;84.43;102272.19;7402416;19;20010;-67
2023/01/28 08:23:29;;;;;;;7.32;5.20;;;;;;;0.00;83.94;102266.91;7400464;19;20505;-68
2023/01/28 08:26:00;;;;;;;83.38;41.67;;;;;;;0.06;83.69;102274.03;7401288;19;20017;-66
2023/01/28 08:28:29;;;;;;;52.17;24.52;;;;;;;0.07;83.38;102279.25;7402096;19;20031;-68
2023/01/28 08:31:00;;;;;;;13.40;8.73;;;;;;;0.11;83.50;102288.91;7401823;19;20408;-69
2023/01/28 08:33:32;;;;;;;8.05;5.60;;;;;;;0.13;83.36;102284.72;7400492;19;20047;-68
2023/01/28 08:36:04;;;;;;;10.43;6.45;;;;;;;0.16;83.38;102281.38;7401432;19;20022;-68
2023/01/28 08:38:32;;;;;;;16.65;9.43;;;;;;;0.19;83.07;102288.38;7401414;19;20019;-68
2023/01/28 08:41:01;;;;;;;18.25;8.35;;;;;;;0.20;82.56;102301.34;7401814;19;20022;-68
2023/01/28 08:43:29;;;;;;;10.85;7.93;;;;;;;0.22;83.09;102299.75;7400644;19;20027;-67
2023/01/28 08:45:59;;;;;;;13.02;8.55;;;;;;;0.26;82.75;102298.19;7402942;19;20037;-68
2023/01/28 08:48:28;;;;;;;16.88;10.82;;;;;;;0.22;82.48;102288.53;7403963;19;20083;-68
2023/01/28 08:51:00;;;;;;;14.00;8.93;;;;;;;0.27;82.54;102292.22;7401343;19;20041;-68
2023/01/28 08:53:29;;;;;;;10.13;5.55;;;;;;;0.29;82.41;102303.47;7399320;19;20031;-68
2023/01/28 08:55:57;;;;;;;10.02;5.65;;;;;;;0.28;81.93;102299.16;7397589;19;20085;-68
2023/01/28 08:58:26;;;;;;;7.20;4.72;;;;;;;0.30;82.32;102308.72;7400467;19;20031;-67
2023/01/28 09:00:54;;;;;;;7.10;4.18;;;;;;;0.31;82.49;102317.34;7400307;19;20023;-67
2023/01/28 09:03:23;;;;;;;11.57;7.50;;;;;;;0.32;82.13;102316.53;7399172;19;20035;-68
2023/01/28 09:05:51;;;;;;;16.23;8.85;;;;;;;0.30;81.32;102313.91;7399816;19;20023;-68
2023/01/28 09:08:22;;;;;;;31.25;18.33;;;;;;;0.30;81.22;102321.63;7400258;19;20015;-68
2023/01/28 09:10:56;;;;;;;21.33;12.68;;;;;;;0.30;81.78;102320.75;7400288;19;20014;-68
2023/01/28 09:13:25;;;;;;;13.90;8.45;;;;;;;0.30;82.06;102323.31;7400010;19;20031;-68
2023/01/28 09:15:54;;;;;;;10.60;7.25;;;;;;;0.26;81.88;102321.41;7398342;19;20015;-68
2023/01/28 09:18:23;;;;;;;14.70;8.02;;;;;;;0.32;81.53;102337.19;7399761;19;20506;-68
2023/01/28 09:20:52;;;;;;;12.75;6.88;;;;;;;0.31;80.08;102330.25;7400084;19;20014;-68
2023/01/28 09:23:23;;;;;;;10.65;7.45;;;;;;;0.31;80.67;102332.84;7399765;19;20019;-67
2023/01/28 09:25:51;;;;;;;10.52;6.57;;;;;;;0.33;80.97;102341.56;7397422;19;20041;-68
2023/01/28 09:28:20;;;;;;;9.35;6.30;;;;;;;0.33;80.12;102338.97;7402208;19;20027;-70
2023/01/28 09:30:49;;;;;;;9.82;6.13;;;;;;;0.25;80.73;102327.38;7400162;19;20018;-71
2023/01/28 09:33:17;;;;;;;12.18;7.05;;;;;;;0.29;80.45;102329.28;7400829;19;20011;-70
2023/01/28 09:35:46;;;;;;;16.77;9.98;;;;;;;0.34;80.79;102342.41;7398200;19;20019;-68
2023/01/28 09:38:15;;;;;;;14.65;9.02;;;;;;;0.40;80.53;102345.28;7399707;19;20006;-70
2023/01/28 09:40:47;;;;;;;11.80;7.55;;;;;;;0.41;80.50;102352.22;7397052;19;20039;-68
2023/01/28 09:43:45;;;;;;;11.88;7.50;;;;;;;0.43;79.43;102351.47;7399134;19;20028;-68
2023/01/28 09:46:17;;;;;;;13.88;9.18;;;;;;;0.45;79.96;102357.59;7401120;19;20011;-70
2023/01/28 09:48:50;;;;;;;12.32;7.85;;;;;;;0.44;79.51;102352.34;7400071;19;20049;-70
2023/01/28 09:51:33;;;;;;;13.38;8.50;;;;;;;0.40;77.89;102361.66;7398699;19;20039;-70
2023/01/28 09:54:06;;;;;;;14.38;8.57;;;;;;;0.40;79.63;102356.50;7397559;19;20035;-70
2023/01/28 09:56:45;;;;;;;16.17;9.85;;;;;;;0.40;78.29;102356.50;7397891;19;20489;-69
2023/01/28 09:59:20;;;;;;;18.00;10.43;;;;;;;0.42;79.60;102357.47;7397808;19;20499;-69
2023/01/28 10:01:56;;;;;;;16.15;9.77;;;;;;;0.43;80.07;102355.75;7397398;19;20019;-69
2023/01/28 10:04:38;;;;;;;15.32;9.20;;;;;;;0.44;77.88;102357.53;7396090;19;20042;-70
2023/01/28 10:07:23;;;;;;;14.20;9.70;;;;;;;0.44;79.41;102350.69;7397009;19;20454;-70
2023/01/28 10:09:58;;;;;;;13.15;8.82;;;;;;;0.48;79.70;102351.66;7397089;19;20481;-70
2023/01/28 10:12:53;;;;;;;12.95;8.93;;;;;;;0.52;76.97;102356.19;7397620;19;20014;-70
2023/01/28 10:15:47;;;;;;;15.30;10.10;;;;;;;0.53;77.62;102351.91;7395494;19;20371;-70
2023/01/28 10:18:16;;;;;;;11.65;8.52;;;;;;;0.56;77.28;102362.38;7397972;19;20086;-70
2023/01/28 10:20:48;;;;;;;12.38;8.45;;;;;;;0.56;75.71;102357.22;7397189;19;20498;-70
2023/01/28 10:23:22;;;;;;;12.50;8.27;;;;;;;0.55;73.84;102360.59;7396628;19;20481;-70
2023/01/28 10:25:51;;;;;;;12.07;7.95;;;;;;;0.54;76.86;102353.66;7397613;19;20014;-69
2023/01/28 10:28:26;;;;;;;10.95;7.45;;;;;;;0.50;72.39;102362.09;7397264;19;20085;-70
2023/01/28 10:30:55;;;;;;;10.70;8.15;;;;;;;0.48;75.22;102354.25;7396127;19;20015;-70
2023/01/28 10:33:38;;;;;;;13.77;8.07;;;;;;;0.47;75.26;102342.19;7394571;19;20014;-71
2023/01/28 10:36:17;;;;;;;10.98;7.38;;;;;;;0.53;76.57;102342.47;7394536;19;20019;-69
2023/01/28 10:38:46;;;;;;;11.45;8.57;;;;;;;0.56;76.08;102342.59;7397107;19;20374;-70
2023/01/28 10:41:21;;;;;;;8.57;5.70;;;;;;;0.57;71.89;102356.38;7396517;19;20038;-71
2023/01/28 10:43:52;;;;;;;10.38;6.07;;;;;;;0.58;70.68;102345.22;7395103;19;20010;-71
2023/01/28 10:46:24;;;;;;;10.75;6.40;;;;;;;0.60;75.55;102346.19;7396103;19;20024;-71
2023/01/28 10:49:01;;;;;;;10.38;7.25;;;;;;;0.63;75.52;102343.75;7395930;19;20079;-70
2023/01/28 10:51:35;;;;;;;13.50;8.50;;;;;;;0.69;76.03;102345.72;7397424;19;20031;-71
2023/01/28 10:54:05;;;;;;;9.75;7.38;;;;;;;0.73;74.60;102339.88;7394859;19;20038;-71
2023/01/28 10:56:36;;;;;;;12.25;8.02;;;;;;;0.76;74.56;102340.91;7394363;19;20042;-71
2023/01/28 10:59:19;;;;;;;12.05;6.10;;;;;;;0.79;74.92;102330.69;7396648;19;20018;-71
2023/01/28 11:01:51;;;;;;;7.25;5.25;;;;;;;0.79;74.39;102335.84;7395639;19;20468;-70
2023/01/28 11:04:24;;;;;;;6.25;4.70;;;;;;;0.77;71.84;102326.25;7394874;19;20019;-71
2023/01/28 11:06:58;;;;;;;8.25;6.07;;;;;;;0.82;72.99;102324.75;7395714;19;20014;-71
2023/01/28 11:09:29;;;;;;;12.63;6.97;;;;;;;0.83;74.13;102321.38;7396488;19;20014;-70
2023/01/28 11:11:58;;;;;;;8.75;5.90;;;;;;;0.85;74.23;102322.34;7396493;19;20015;-70
2023/01/28 11:14:29;;;;;;;10.82;6.15;;;;;;;0.91;74.34;102334.63;7394112;19;20478;-70
2023/01/28 11:17:00;;;;;;;8.80;6.68;;;;;;;0.93;72.69;102333.00;7396307;19;20010;-70
2023/01/28 11:19:34;;;;;;;10.00;6.20;;;;;;;0.94;73.69;102334.78;7394167;19;20032;-70
2023/01/28 11:22:03;;;;;;;7.35;5.25;;;;;;;0.93;69.23;102336.44;7395776;19;20015;-70
2023/01/28 11:24:33;;;;;;;6.70;4.70;;;;;;;0.91;71.30;102334.63;7394298;19;20011;-70
2023/01/28 11:27:16;;;;;;;5.70;3.45;;;;;;;0.89;71.80;102331.97;7401685;19;20374;-70
2023/01/28 11:29:48;;;;;;;6.05;3.75;;;;;;;0.89;71.58;102336.28;7399624;19;20015;-71
2023/01/28 11:32:21;;;;;;;7.40;5.15;;;;;;;0.88;71.43;102329.34;7396619;19;20011;-68
2023/01/28 11:34:56;;;;;;;7.78;3.33;;;;;;;0.83;69.16;102317.91;7396640;19;20028;-67
2023/01/28 11:37:26;;;;;;;5.50;2.55;;;;;;;0.86;70.29;102318.03;7399211;19;20038;-71
2023/01/28 11:40:05;;;;;;;6.10;2.50;;;;;;;0.83;69.16;102316.19;7396398;19;20028;-68
2023/01/28 11:42:34;;;;;;;2.58;1.85;;;;;;;0.81;70.38;102321.31;7396964;19;20014;-68
2023/01/28 11:45:05;;;;;;;3.03;2.42;;;;;;;0.81;68.54;102320.44;7395975;19;20485;-68
2023/01/28 11:47:47;;;;;;;5.57;2.83;;;;;;;0.79;64.08;102317.75;7396075;19;20014;-68
2023/01/28 11:50:26;;;;;;;2.95;2.25;;;;;;;0.77;67.90;102327.16;7402672;19;20014;-70
2023/01/28 11:53:13;;;;;;;3.00;2.28;;;;;;;0.78;66.35;102328.94;7400468;19;20038;-68
2023/01/28 11:56:01;;;;;;;2.40;1.88;;;;;;;0.80;68.44;102311.78;7403650;19;20015;-68
2023/01/28 11:58:39;;;;;;;3.78;1.85;;;;;;;0.83;69.23;102316.19;7401952;19;20557;-69
2023/01/28 12:01:15;;;;;;;3.80;2.00;;;;;;;0.82;65.03;102311.84;7402042;19;20018;-70
2023/01/28 12:03:56;;;;;;;3.67;2.33;;;;;;;0.79;68.59;102304.84;7400567;19;20019;-70
2023/01/28 12:06:44;;;;;;;3.67;2.30;;;;;;;0.86;69.37;102311.19;7402697;19;20027;-69
2023/01/28 12:09:26;;;;;;;5.43;3.40;;;;;;;0.89;70.70;102300.97;7402161;19;20032;-71
2023/01/28 12:12:14;;;;;;;7.72;4.20;;;;;;;0.94;70.72;102293.41;7402214;19;20099;-69
2023/01/28 12:15:21;;;;;;;7.03;3.53;;;;;;;1.01;70.18;102298.03;7398499;19;20053;-70